Time;durP1;ratioP1;P1;durP2;ratioP2;P2;SDS_P1;SDS_P2;PMS_P1;PMS_P2;Temp;Humidity;BMP_temperature;BMP_pressure;BME280_temperature;BME280_humidity;BME280_pressure;Samples;Min_cycle;Max_cycle;Signal;HPM_P1;HPM_P2
2021/08/19 05:32:32;;;;;;;0.00;0.00;;;20.00;96.20;;;;;;4867178;29;20065;-87
2021/08/19 05:35:01;;;;;;;0.00;0.00;;;20.00;96.30;;;;;;4849183;29;20399;-86
2021/08/19 05:37:27;;;;;;;0.00;0.00;;;19.90;95.40;;;;;;4847359;29;20399;-87
2021/08/19 05:39:53;;;;;;;0.00;0.00;;;19.90;96.30;;;;;;4846658;29;20032;-87
2021/08/19 05:42:18;;;;;;;0.10;0.10;;;19.90;95.80;;;;;;4846175;29;20030;-86
2021/08/19 05:44:44;;;;;;;0.00;0.00;;;19.90;95.90;;;;;;4845690;29;20103;-86
2021/08/19 05:47:10;;;;;;;0.00;0.00;;;20.10;95.60;;;;;;4861880;29;20367;-88
2021/08/19 05:49:41;;;;;;;0.00;0.00;;;20.10;95.30;;;;;;4845536;29;20030;-86
2021/08/19 05:52:07;;;;;;;0.10;0.10;;;20.30;94.50;;;;;;4845500;29;20036;-86
2021/08/19 05:54:35;;;;;;;0.00;0.00;;;20.30;94.30;;;;;;4844719;29;20034;-86
2021/08/19 05:57:01;;;;;;;0.10;0.10;;;20.50;94.10;;;;;;4845325;29;20026;-86
2021/08/19 05:59:27;;;;;;;0.00;0.00;;;20.60;93.60;;;;;;4846902;29;20117;-86
2021/08/19 06:01:53;;;;;;;0.10;0.10;;;20.70;93.10;;;;;;4849345;29;20488;-87
2021/08/19 06:04:18;;;;;;;0.00;0.00;;;20.90;92.80;;;;;;4846324;29;20026;-87
2021/08/19 06:06:45;;;;;;;0.00;0.00;;;21.10;92.50;;;;;;4848039;29;20464;-87
2021/08/19 06:09:12;;;;;;;0.00;0.00;;;21.30;91.60;;;;;;4853890;29;20543;-86
2021/08/19 06:11:38;;;;;;;0.00;0.00;;;21.50;91.00;;;;;;4865367;29;20029;-86
2021/08/19 06:14:03;;;;;;;0.00;0.00;;;21.60;90.60;;;;;;4866488;29;20038;-86
2021/08/19 06:16:29;;;;;;;0.00;0.00;;;21.80;90.20;;;;;;4863595;29;20037;-86
2021/08/19 06:18:56;;;;;;;0.00;0.00;;;22.00;88.00;;;;;;4846506;29;20116;-86
2021/08/19 06:21:22;;;;;;;0.00;0.00;;;22.00;85.20;;;;;;4846468;29;20038;-87
2021/08/19 06:23:48;;;;;;;0.00;0.00;;;21.90;85.20;;;;;;4846453;29;20472;-87
2021/08/19 06:26:13;;;;;;;0.00;0.00;;;22.30;86.60;;;;;;4860531;29;20062;-87
2021/08/19 06:28:41;;;;;;;0.00;0.00;;;22.80;84.70;;;;;;4864833;29;20093;-87
2021/08/19 06:31:07;;;;;;;0.00;0.00;;;23.10;81.70;;;;;;4849698;29;20603;-87
2021/08/19 06:33:33;;;;;;;0.00;0.00;;;23.50;81.30;;;;;;4865367;29;20037;-86
2021/08/19 06:35:59;;;;;;;0.00;0.00;;;23.90;80.20;;;;;;4845525;29;20449;-86
2021/08/19 06:38:24;;;;;;;0.00;0.00;;;24.40;78.90;;;;;;4845865;29;20508;-86
2021/08/19 06:40:50;;;;;;;0.00;0.00;;;24.70;76.30;;;;;;4844957;29;20049;-86
2021/08/19 06:43:16;;;;;;;0.00;0.00;;;24.70;74.60;;;;;;4846286;29;20044;-85
2021/08/19 06:45:42;;;;;;;0.00;0.00;;;24.60;73.80;;;;;;4842892;29;20480;-86
2021/08/19 06:48:07;;;;;;;0.00;0.00;;;24.40;73.00;;;;;;4844570;29;20520;-85
2021/08/19 06:50:33;;;;;;;0.00;0.00;;;24.20;73.20;;;;;;4844253;29;20437;-86
2021/08/19 06:52:59;;;;;;;0.00;0.00;;;23.80;72.80;;;;;;4857381;29;20121;-87
2021/08/19 06:55:25;;;;;;;0.00;0.00;;;23.50;73.30;;;;;;4845420;29;20034;-86
2021/08/19 06:57:50;;;;;;;0.00;0.00;;;23.10;73.70;;;;;;4846038;29;20055;-86
2021/08/19 07:00:16;;;;;;;0.00;0.00;;;22.90;74.10;;;;;;4845185;29;20064;-85
2021/08/19 07:02:42;;;;;;;0.00;0.00;;;22.70;74.60;;;;;;4844613;29;20034;-86
2021/08/19 07:05:08;;;;;;;0.00;0.00;;;22.60;75.00;;;;;;4844118;29;20034;-85
2021/08/19 07:07:35;;;;;;;0.00;0.00;;;22.40;74.90;;;;;;4843385;29;20036;-85
2021/08/19 07:10:03;;;;;;;0.00;0.00;;;22.20;75.30;;;;;;4844067;29;20030;-86
2021/08/19 07:12:28;;;;;;;0.00;0.00;;;22.10;76.30;;;;;;4843292;29;20042;-86
2021/08/19 07:14:54;;;;;;;0.00;0.00;;;21.90;75.80;;;;;;4843968;29;20488;-86
2021/08/19 07:17:20;;;;;;;0.00;0.00;;;21.80;76.20;;;;;;4850918;29;20095;-85
2021/08/19 07:19:45;;;;;;;0.08;0.08;;;21.70;76.80;;;;;;4853392;29;20064;-85
2021/08/19 07:22:11;;;;;;;0.00;0.00;;;21.70;76.70;;;;;;4856001;29;20053;-85
2021/08/19 07:24:37;;;;;;;0.00;0.00;;;21.60;77.00;;;;;;4865234;29;20038;-86
2021/08/19 07:27:03;;;;;;;0.00;0.00;;;21.50;77.00;;;;;;4865068;29;20037;-85
2021/08/19 07:29:29;;;;;;;0.00;0.00;;;21.30;77.90;;;;;;4847015;29;20041;-85
2021/08/19 07:31:55;;;;;;;0.00;0.00;;;21.10;77.70;;;;;;4871527;23;20048;-88
2021/08/19 07:34:20;;;;;;;0.00;0.00;;;21.00;77.80;;;;;;4918187;29;20039;-90
2021/08/19 07:36:46;;;;;;;0.00;0.00;;;20.90;78.20;;;;;;4916298;29;20525;-87
2021/08/19 07:39:12;;;;;;;0.00;0.00;;;20.70;78.50;;;;;;4915607;29;20039;-87
2021/08/19 07:41:49;;;;;;;0.00;0.00;;;20.60;79.10;;;;;;4913769;29;20040;-89
2021/08/19 07:44:15;;;;;;;0.00;0.00;;;20.60;79.30;;;;;;4915907;29;20039;-89
2021/08/19 07:46:41;;;;;;;0.10;0.10;;;20.60;79.70;;;;;;4913143;29;20024;-86
2021/08/19 07:49:06;;;;;;;0.00;0.00;;;20.60;79.90;;;;;;4915368;29;20423;-89
2021/08/19 07:51:34;;;;;;;0.00;0.00;;;20.60;79.80;;;;;;4914436;29;20059;-88
2021/08/19 07:54:01;;;;;;;0.00;0.00;;;20.60;79.80;;;;;;4915506;29;20028;-87
2021/08/19 07:56:29;;;;;;;0.00;0.00;;;20.70;79.40;;;;;;4917739;29;20462;-87
2021/08/19 07:58:55;;;;;;;0.00;0.00;;;20.60;79.20;;;;;;4917103;29;20031;-87
2021/08/19 08:01:22;;;;;;;0.00;0.00;;;20.50;79.40;;;;;;4917003;29;20040;-87
2021/08/19 08:03:48;;;;;;;0.10;0.10;;;20.30;79.90;;;;;;4916957;29;20508;-86
2021/08/19 08:06:13;;;;;;;0.10;0.10;;;20.20;80.20;;;;;;4917220;29;20131;-87
2021/08/19 08:08:39;;;;;;;0.00;0.00;;;20.00;80.90;;;;;;4916964;29;20375;-88
2021/08/19 08:11:05;;;;;;;0.00;0.00;;;20.00;81.60;;;;;;4916717;29;20028;-88
2021/08/19 08:13:31;;;;;;;0.00;0.00;;;20.10;82.10;;;;;;4916489;29;20498;-88
2021/08/19 08:15:57;;;;;;;0.10;0.10;;;20.30;81.80;;;;;;4918595;29;20027;-87
2021/08/19 08:18:23;;;;;;;0.10;0.10;;;20.40;81.80;;;;;;4917980;29;20040;-87
2021/08/19 08:20:48;;;;;;;0.00;0.00;;;20.50;82.40;;;;;;4917771;29;20115;-87
2021/08/19 08:23:21;;;;;;;0.00;0.00;;;20.70;82.10;;;;;;4917140;29;20124;-88
2021/08/19 08:25:47;;;;;;;0.00;0.00;;;20.70;82.40;;;;;;4918183;29;20024;-88
2021/08/19 08:28:26;;;;;;;0.00;0.00;;;20.70;82.40;;;;;;4918508;29;20024;-89
2021/08/19 08:30:51;;;;;;;0.00;0.00;;;20.70;83.00;;;;;;4917567;29;20040;-88
2021/08/19 08:33:18;;;;;;;0.00;0.00;;;20.90;83.40;;;;;;4918906;29;20374;-87
2021/08/19 08:35:44;;;;;;;0.10;0.10;;;20.90;82.80;;;;;;4926839;29;20075;-86
2021/08/19 08:38:16;;;;;;;0.00;0.00;;;20.90;82.80;;;;;;4920595;29;20069;-87
2021/08/19 08:40:45;;;;;;;0.00;0.00;;;20.80;82.80;;;;;;4916501;29;20040;-87
2021/08/19 08:43:12;;;;;;;0.00;0.00;;;20.70;82.90;;;;;;4918344;29;20032;-86
2021/08/19 08:45:39;;;;;;;0.00;0.00;;;20.50;83.60;;;;;;4916491;29;20111;-87
2021/08/19 08:48:11;;;;;;;0.00;0.00;;;20.30;84.50;;;;;;4917819;29;20032;-88
2021/08/19 08:50:42;;;;;;;0.00;0.00;;;20.10;85.40;;;;;;4916208;29;20030;-87
2021/08/19 08:53:09;;;;;;;0.00;0.00;;;20.20;86.20;;;;;;4915116;29;20040;-87
2021/08/19 08:55:36;;;;;;;0.00;0.00;;;20.40;86.30;;;;;;4916241;29;20025;-86
2021/08/19 08:58:02;;;;;;;0.10;0.10;;;20.60;85.40;;;;;;4916050;29;20036;-87
2021/08/19 09:00:28;;;;;;;0.00;0.00;;;20.60;85.30;;;;;;4915752;29;20042;-86
2021/08/19 09:02:54;;;;;;;0.00;0.00;;;20.70;84.70;;;;;;4916786;29;20036;-87
2021/08/19 09:05:29;;;;;;;0.00;0.00;;;20.60;85.20;;;;;;4913794;29;20462;-88
2021/08/19 09:08:01;;;;;;;0.00;0.00;;;20.80;85.40;;;;;;4914400;29;20096;-89
2021/08/19 09:10:30;;;;;;;0.00;0.00;;;20.80;85.20;;;;;;4913973;29;20401;-88
2021/08/19 09:13:04;;;;;;;0.00;0.00;;;20.70;85.00;;;;;;4912586;29;20047;-89
2021/08/19 09:15:30;;;;;;;0.00;0.00;;;20.50;86.30;;;;;;4914283;29;20028;-88
2021/08/19 09:17:56;;;;;;;0.00;0.00;;;20.40;87.00;;;;;;4914268;29;20047;-89
2021/08/19 09:20:30;;;;;;;0.00;0.00;;;20.30;87.40;;;;;;4914474;29;20032;-88
2021/08/19 09:23:02;;;;;;;0.00;0.00;;;20.20;88.30;;;;;;4916726;29;20044;-87
2021/08/19 09:25:40;;;;;;;0.10;0.10;;;20.00;88.20;;;;;;4915019;29;20508;-87
2021/08/19 09:28:23;;;;;;;0.00;0.00;;;19.80;90.00;;;;;;4916323;29;20092;-87
2021/08/19 09:31:06;;;;;;;0.00;0.00;;;19.60;90.70;;;;;;4916168;29;20119;-87
2021/08/19 09:33:43;;;;;;;0.00;0.00;;;19.60;91.80;;;;;;4915204;29;20127;-87
2021/08/19 09:36:09;;;;;;;0.10;0.10;;;19.50;92.40;;;;;;4913823;29;20056;-89
2021/08/19 09:38:44;;;;;;;0.00;0.00;;;19.60;93.20;;;;;;4914573;29;20040;-87
2021/08/19 09:41:17;;;;;;;0.00;0.00;;;19.60;93.10;;;;;;4914409;29;20047;-88
2021/08/19 09:43:47;;;;;;;0.00;0.00;;;19.60;93.30;;;;;;4917373;29;20048;-88
2021/08/19 09:46:34;;;;;;;0.00;0.00;;;19.50;93.30;;;;;;4915981;29;20035;-88
2021/08/19 09:49:02;;;;;;;0.00;0.00;;;19.50;93.80;;;;;;4915564;29;20029;-89
2021/08/19 09:51:29;;;;;;;0.10;0.10;;;19.40;94.00;;;;;;4917378;29;20133;-88
2021/08/19 09:53:57;;;;;;;0.00;0.00;;;19.50;94.40;;;;;;4915641;29;20036;-89
2021/08/19 09:56:26;;;;;;;0.00;0.00;;;19.60;94.60;;;;;;4915707;29;20037;-89
2021/08/19 09:58:52;;;;;;;0.10;0.10;;;19.70;95.20;;;;;;4915760;29;20119;-89
2021/08/19 10:01:19;;;;;;;0.00;0.00;;;19.90;94.70;;;;;;4915805;29;20107;-90
2021/08/19 10:03:45;;;;;;;0.00;0.00;;;20.10;94.50;;;;;;4917254;29;20409;-90
2021/08/19 10:06:11;;;;;;;0.00;0.00;;;20.40;93.60;;;;;;4917696;29;20068;-90
2021/08/19 10:08:37;;;;;;;0.00;0.00;;;20.60;92.50;;;;;;4917857;29;20163;-90
2021/08/19 10:11:04;;;;;;;0.05;0.05;;;20.80;91.70;;;;;;4920617;29;20064;-89
2021/08/19 10:13:32;;;;;;;0.00;0.00;;;20.90;91.20;;;;;;4921144;29;20032;-90
2021/08/19 10:15:59;;;;;;;0.00;0.00;;;21.00;90.50;;;;;;4920339;29;20468;-90
2021/08/19 10:18:31;;;;;;;0.00;0.00;;;21.00;90.30;;;;;;4919056;29;20036;-90
2021/08/19 10:21:15;;;;;;;0.00;0.00;;;21.10;90.00;;;;;;4918908;29;20434;-90
2021/08/19 10:23:43;;;;;;;0.00;0.00;;;21.10;89.50;;;;;;4902309;29;20148;-89
2021/08/19 10:26:11;;;;;;;0.00;0.00;;;21.20;90.00;;;;;;4918985;29;20439;-89
2021/08/19 10:28:50;;;;;;;0.00;0.00;;;21.10;89.60;;;;;;4918886;29;20032;-90
2021/08/19 10:31:43;;;;;;;0.00;0.00;;;21.20;89.50;;;;;;4918743;29;20115;-89
2021/08/19 10:34:15;;;;;;;0.00;0.00;;;21.20;88.90;;;;;;4920317;29;20123;-89
2021/08/19 10:36:45;;;;;;;0.00;0.00;;;21.10;88.90;;;;;;4918513;29;20387;-89
2021/08/19 10:39:25;;;;;;;0.00;0.00;;;21.10;88.90;;;;;;4919607;29;20044;-89
2021/08/19 10:41:55;;;;;;;0.00;0.00;;;21.10;89.60;;;;;;4918001;29;20044;-89
2021/08/19 10:44:34;;;;;;;0.00;0.00;;;21.00;89.00;;;;;;4918779;29;20461;-90
2021/08/19 10:47:01;;;;;;;0.00;0.00;;;20.80;89.10;;;;;;4918275;29;20031;-89
2021/08/19 10:49:30;;;;;;;0.00;0.00;;;20.70;90.30;;;;;;4919661;29;20039;-89
2021/08/19 10:52:08;;;;;;;0.00;0.00;;;20.60;90.30;;;;;;4920714;29;20080;-90
2021/08/19 10:54:40;;;;;;;0.00;0.00;;;20.50;90.80;;;;;;4920975;29;20032;-89
2021/08/19 10:57:24;;;;;;;0.00;0.00;;;20.40;91.00;;;;;;4918360;29;20134;-89
2021/08/19 10:59:57;;;;;;;0.00;0.00;;;20.40;91.20;;;;;;4919570;29;20402;-88
2021/08/19 11:02:47;;;;;;;0.00;0.00;;;20.40;91.60;;;;;;4918239;29;20051;-89
2021/08/19 11:05:20;;;;;;;0.00;0.00;;;20.30;92.20;;;;;;4915776;29;20037;-89
2021/08/19 11:07:48;;;;;;;0.03;0.03;;;20.30;92.50;;;;;;4919060;29;20394;-89
2021/08/19 11:10:28;;;;;;;0.00;0.00;;;20.30;92.70;;;;;;4915878;29;20459;-89
2021/08/19 11:13:01;;;;;;;0.00;0.00;;;20.30;93.00;;;;;;4915734;29;20055;-89
2021/08/19 11:15:27;;;;;;;0.00;0.00;;;20.30;93.10;;;;;;4914743;29;20024;-89
2021/08/19 11:17:54;;;;;;;0.00;0.00;;;20.30;92.90;;;;;;4916155;29;20028;-89
2021/08/19 11:20:22;;;;;;;0.00;0.00;;;20.20;93.10;;;;;;4916538;29;20052;-89
2021/08/19 11:23:09;;;;;;;0.00;0.00;;;20.20;93.60;;;;;;4916407;29;20020;-88
2021/08/19 11:25:38;;;;;;;0.00;0.00;;;20.20;94.30;;;;;;4918178;29;20116;-89
2021/08/19 11:28:10;;;;;;;0.00;0.00;;;20.10;94.00;;;;;;4917903;29;20043;-88
2021/08/19 11:30:44;;;;;;;0.00;0.00;;;20.00;94.00;;;;;;4918115;29;20063;-88
2021/08/19 11:33:13;;;;;;;0.00;0.00;;;20.00;94.80;;;;;;4917640;29;20044;-88
2021/08/19 11:35:39;;;;;;;0.00;0.00;;;19.90;95.20;;;;;;4915696;29;20043;-88
2021/08/19 11:38:25;;;;;;;0.00;0.00;;;19.90;95.50;;;;;;4915687;29;20044;-88
2021/08/19 11:40:54;;;;;;;0.00;0.00;;;19.90;95.40;;;;;;4915444;29;20036;-90
2021/08/19 11:43:27;;;;;;;0.05;0.05;;;19.90;96.00;;;;;;4915392;29;20025;-88
2021/08/19 11:46:24;;;;;;;0.00;0.00;;;19.90;96.90;;;;;;4915412;29;20545;-88
2021/08/19 11:48:59;;;;;;;0.10;0.10;;;20.00;97.20;;;;;;4918750;29;20058;-90
2021/08/19 11:51:33;;;;;;;0.00;0.00;;;20.00;97.00;;;;;;4919317;29;20382;-90
2021/08/19 11:54:01;;;;;;;0.00;0.00;;;20.10;97.10;;;;;;4917758;29;20084;-89
2021/08/19 11:56:32;;;;;;;0.00;0.00;;;20.30;97.60;;;;;;4917114;29;20040;-90
2021/08/19 11:59:14;;;;;;;0.00;0.00;;;20.50;97.80;;;;;;4917725;29;20490;-92
2021/08/19 12:01:54;;;;;;;0.00;0.00;;;20.70;97.10;;;;;;4916926;29;20092;-89
2021/08/19 12:04:33;;;;;;;0.00;0.00;;;20.90;96.20;;;;;;4917104;29;20036;-89
2021/08/19 12:07:01;;;;;;;0.00;0.00;;;21.10;95.10;;;;;;4916959;29;20648;-89
2021/08/19 12:09:33;;;;;;;0.00;0.00;;;21.30;94.50;;;;;;4917429;29;20394;-89
2021/08/19 12:12:03;;;;;;;0.00;0.00;;;21.70;93.40;;;;;;4917257;29;20028;-89
2021/08/19 12:14:28;;;;;;;0.00;0.00;;;22.10;93.50;;;;;;4917362;29;20024;-88
2021/08/19 12:16:56;;;;;;;0.00;0.00;;;22.90;93.80;;;;;;4916914;29;20496;-88
2021/08/19 12:19:28;;;;;;;0.00;0.00;;;24.20;91.90;;;;;;4916751;29;20032;-87
2021/08/19 12:21:57;;;;;;;0.00;0.00;;;25.80;86.80;;;;;;4916755;29;20050;-87
2021/08/19 12:24:31;;;;;;;0.00;0.00;;;27.60;82.40;;;;;;4916657;29;20501;-88
2021/08/19 12:27:07;;;;;;;0.00;0.00;;;29.00;77.20;;;;;;4916728;29;20059;-87
2021/08/19 12:29:54;;;;;;;0.00;0.00;;;30.20;72.10;;;;;;4916667;29;20459;-88
2021/08/19 12:32:30;;;;;;;0.00;0.00;;;31.30;67.40;;;;;;4916345;29;20087;-87
2021/08/19 12:35:05;;;;;;;0.00;0.00;;;32.20;67.10;;;;;;4916475;29;20100;-88
2021/08/19 12:37:33;;;;;;;0.00;0.00;;;32.80;64.30;;;;;;4916497;29;20390;-88
2021/08/19 12:40:09;;;;;;;0.00;0.00;;;33.60;63.60;;;;;;4916598;29;20096;-88
2021/08/19 12:42:35;;;;;;;0.00;0.00;;;34.20;59.00;;;;;;4918284;29;20415;-87
2021/08/19 12:45:13;;;;;;;0.00;0.00;;;34.10;59.30;;;;;;4916398;29;20465;-89
2021/08/19 12:47:42;;;;;;;0.00;0.00;;;33.50;59.00;;;;;;4918940;29;20032;-88
2021/08/19 12:50:10;;;;;;;0.00;0.00;;;32.50;59.20;;;;;;4916962;29;20043;-89
2021/08/19 12:52:36;;;;;;;0.00;0.00;;;31.50;59.40;;;;;;4915640;29;20024;-89
2021/08/19 12:55:04;;;;;;;0.00;0.00;;;30.60;60.60;;;;;;4916542;29;20028;-88
2021/08/19 12:57:38;;;;;;;0.00;0.00;;;29.70;61.40;;;;;;4916598;29;20028;-88
2021/08/19 13:00:08;;;;;;;0.00;0.00;;;29.00;62.20;;;;;;4914099;29;20036;-88
2021/08/19 13:02:34;;;;;;;0.00;0.00;;;28.40;63.10;;;;;;4915854;29;20046;-91
2021/08/19 13:05:00;;;;;;;0.00;0.00;;;28.00;64.40;;;;;;4916342;29;20032;-87
2021/08/19 13:07:26;;;;;;;0.00;0.00;;;27.90;64.70;;;;;;4917636;29;20039;-88
2021/08/19 13:09:53;;;;;;;0.00;0.00;;;28.00;64.50;;;;;;4916749;29;20420;-89
2021/08/19 13:12:21;;;;;;;0.00;0.00;;;28.20;64.60;;;;;;4914730;29;20032;-89
2021/08/19 13:14:47;;;;;;;0.00;0.00;;;28.70;63.90;;;;;;4914706;29;20036;-88
2021/08/19 13:17:14;;;;;;;0.00;0.00;;;29.30;62.70;;;;;;4914028;29;20075;-88
2021/08/19 13:19:40;;;;;;;0.00;0.00;;;29.70;61.00;;;;;;4913861;29;20398;-89
2021/08/19 13:22:06;;;;;;;0.00;0.00;;;29.70;60.70;;;;;;4912782;29;20039;-87
2021/08/19 13:24:32;;;;;;;0.00;0.00;;;29.50;60.40;;;;;;4914605;29;20024;-88
2021/08/19 13:26:58;;;;;;;0.00;0.00;;;29.20;60.80;;;;;;4916622;29;20119;-88
2021/08/19 13:29:24;;;;;;;0.00;0.00;;;28.80;61.20;;;;;;4916999;29;20064;-88
2021/08/19 13:31:50;;;;;;;0.00;0.00;;;28.30;61.80;;;;;;4916188;29;20557;-88
2021/08/19 13:34:15;;;;;;;0.00;0.00;;;27.80;62.20;;;;;;4916996;29;20586;-91
2021/08/19 13:36:41;;;;;;;0.00;0.00;;;27.50;62.40;;;;;;4916265;29;20056;-88
2021/08/19 13:39:07;;;;;;;0.00;0.00;;;27.10;63.10;;;;;;4917041;29;20497;-89
2021/08/19 13:41:33;;;;;;;0.00;0.00;;;27.10;63.90;;;;;;4916485;29;20130;-88
2021/08/19 13:43:59;;;;;;;0.00;0.00;;;27.60;63.90;;;;;;4917042;29;20115;-88
2021/08/19 13:46:24;;;;;;;0.00;0.00;;;27.90;63.00;;;;;;4919053;29;20038;-87
2021/08/19 13:48:50;;;;;;;0.00;0.00;;;28.10;62.40;;;;;;4919603;29;20028;-87
2021/08/19 13:51:16;;;;;;;0.00;0.00;;;28.40;62.40;;;;;;4919299;29;20024;-88
2021/08/19 13:53:42;;;;;;;0.00;0.00;;;29.00;61.90;;;;;;4920214;29;20067;-89
2021/08/19 13:56:07;;;;;;;0.00;0.00;;;29.50;59.50;;;;;;4918973;29;20032;-89
2021/08/19 13:58:46;;;;;;;0.00;0.00;;;29.90;59.50;;;;;;4918972;29;20622;-88
2021/08/19 14:01:11;;;;;;;0.00;0.00;;;30.70;58.90;;;;;;4920907;29;20047;-89
2021/08/19 14:03:37;;;;;;;0.00;0.00;;;31.50;56.40;;;;;;4919928;29;20025;-88
2021/08/19 14:06:03;;;;;;;0.00;0.00;;;31.90;56.20;;;;;;4918875;29;20505;-90
2021/08/19 14:08:29;;;;;;;0.00;0.00;;;32.40;55.40;;;;;;4918987;29;20028;-88
2021/08/19 14:10:55;;;;;;;0.00;0.00;;;32.70;53.70;;;;;;4919112;29;20028;-90
2021/08/19 14:13:20;;;;;;;0.00;0.00;;;33.00;52.60;;;;;;4919245;29;20035;-91
2021/08/19 14:15:46;;;;;;;0.00;0.00;;;32.90;52.40;;;;;;4919098;29;20028;-88
2021/08/19 14:18:12;;;;;;;0.00;0.00;;;32.40;52.10;;;;;;4917674;29;20036;-89
2021/08/19 14:20:38;;;;;;;0.00;0.00;;;31.70;53.00;;;;;;4918912;29;20060;-89
2021/08/19 14:23:03;;;;;;;0.00;0.00;;;30.80;53.70;;;;;;4916652;29;20032;-88
2021/08/19 14:25:29;;;;;;;0.00;0.00;;;30.10;54.40;;;;;;4916383;29;20036;-90
2021/08/19 14:27:55;;;;;;;0.00;0.00;;;29.40;55.50;;;;;;4916466;29;20040;-88
2021/08/19 14:30:20;;;;;;;0.00;0.00;;;28.90;56.20;;;;;;4917027;29;20040;-89
2021/08/19 14:32:46;;;;;;;0.00;0.00;;;28.40;56.30;;;;;;4918561;29;20067;-89
2021/08/19 14:35:12;;;;;;;0.00;0.00;;;28.00;56.80;;;;;;4922382;29;20032;-87
2021/08/19 14:37:39;;;;;;;0.00;0.00;;;27.60;57.40;;;;;;4921558;29;20043;-88
2021/08/19 14:40:06;;;;;;;0.00;0.00;;;27.30;58.20;;;;;;4918156;29;20039;-88
2021/08/19 14:42:32;;;;;;;0.00;0.00;;;27.00;58.80;;;;;;4902691;29;20095;-88
2021/08/19 14:44:57;;;;;;;0.00;0.00;;;26.70;59.50;;;;;;4918351;29;20028;-88
2021/08/19 14:47:23;;;;;;;0.00;0.00;;;26.30;60.00;;;;;;4918581;29;20044;-88
2021/08/19 14:49:49;;;;;;;0.00;0.00;;;26.00;60.70;;;;;;4918244;29;20419;-88
2021/08/19 14:52:15;;;;;;;0.00;0.00;;;25.80;61.40;;;;;;4918353;29;20127;-87
2021/08/19 14:54:41;;;;;;;0.00;0.00;;;25.50;61.90;;;;;;4919412;29;20048;-88
2021/08/19 14:57:07;;;;;;;0.00;0.00;;;25.40;62.40;;;;;;4917871;29;20119;-88
2021/08/19 14:59:35;;;;;;;0.00;0.00;;;25.30;62.70;;;;;;4917967;29;20024;-88
2021/08/19 15:02:01;;;;;;;0.00;0.00;;;25.20;63.00;;;;;;4918143;29;20085;-88
2021/08/19 15:04:27;;;;;;;0.00;0.00;;;25.20;63.10;;;;;;4918176;29;20032;-88
2021/08/19 15:06:53;;;;;;;0.00;0.00;;;25.10;63.40;;;;;;4916684;29;20047;-88
2021/08/19 15:09:18;;;;;;;0.00;0.00;;;24.90;63.60;;;;;;4916107;29;20028;-88
2021/08/19 15:11:44;;;;;;;0.00;0.00;;;24.90;63.90;;;;;;4917699;29;20036;-89
2021/08/19 15:14:12;;;;;;;0.00;0.00;;;24.80;64.20;;;;;;4918794;29;20031;-88
2021/08/19 15:16:39;;;;;;;0.00;0.00;;;24.70;64.60;;;;;;4923133;29;20044;-88
2021/08/19 15:19:06;;;;;;;0.00;0.00;;;24.50;64.90;;;;;;4918832;29;20028;-88
2021/08/19 15:21:33;;;;;;;0.00;0.00;;;24.40;65.00;;;;;;4917589;29;20048;-88
2021/08/19 15:23:59;;;;;;;0.00;0.00;;;24.30;65.20;;;;;;4917499;29;20554;-88
2021/08/19 15:26:25;;;;;;;0.00;0.00;;;24.10;65.50;;;;;;4917324;29;20123;-88
2021/08/19 15:28:53;;;;;;;0.00;0.00;;;24.00;66.00;;;;;;4917664;29;20024;-88
2021/08/19 15:31:23;;;;;;;0.00;0.00;;;24.00;66.10;;;;;;4917410;29;20721;-88
2021/08/19 15:33:49;;;;;;;0.00;0.00;;;23.90;66.40;;;;;;4919004;29;20385;-88
2021/08/19 15:36:20;;;;;;;0.00;0.00;;;23.90;66.50;;;;;;4917606;29;20024;-88
2021/08/19 15:38:47;;;;;;;0.00;0.00;;;23.90;66.50;;;;;;4917634;29;20107;-88
2021/08/19 15:41:17;;;;;;;0.00;0.00;;;23.80;66.50;;;;;;4917194;29;20032;-88
2021/08/19 15:43:47;;;;;;;0.00;0.00;;;23.70;66.60;;;;;;4918037;29;20040;-88
2021/08/19 15:46:13;;;;;;;0.00;0.00;;;23.60;66.80;;;;;;4917652;29;20106;-87
2021/08/19 15:48:39;;;;;;;0.00;0.00;;;23.60;67.00;;;;;;4923744;29;20048;-88
2021/08/19 15:51:09;;;;;;;0.00;0.00;;;23.50;66.80;;;;;;4924029;29;20028;-88
2021/08/19 15:53:39;;;;;;;0.00;0.00;;;23.50;67.00;;;;;;4923385;29;20051;-87
2021/08/19 15:56:05;;;;;;;0.00;0.00;;;23.40;67.10;;;;;;4924295;29;20040;-87
2021/08/19 15:58:35;;;;;;;0.00;0.00;;;23.20;67.30;;;;;;4917818;29;20036;-88
2021/08/19 16:01:05;;;;;;;0.10;0.10;;;23.10;67.50;;;;;;4916904;29;20036;-88
2021/08/19 16:03:31;;;;;;;0.00;0.00;;;23.00;67.60;;;;;;4916893;29;20032;-88
2021/08/19 16:05:57;;;;;;;0.00;0.00;;;22.90;67.80;;;;;;4917689;29;20028;-88
2021/08/19 16:08:23;;;;;;;0.00;0.00;;;22.70;68.20;;;;;;4917118;29;20167;-88
2021/08/19 16:10:48;;;;;;;0.00;0.00;;;22.60;68.50;;;;;;4916803;29;20036;-88
2021/08/19 16:13:15;;;;;;;0.00;0.00;;;22.60;68.70;;;;;;4917720;29;20040;-88
2021/08/19 16:15:41;;;;;;;0.00;0.00;;;22.50;68.90;;;;;;4917133;29;20028;-89
2021/08/19 16:18:08;;;;;;;0.00;0.00;;;22.40;69.20;;;;;;4918710;29;20118;-88
2021/08/19 16:20:38;;;;;;;0.00;0.00;;;22.30;69.30;;;;;;4917192;29;20036;-87
2021/08/19 16:23:05;;;;;;;0.15;0.00;;;22.30;69.60;;;;;;4916794;29;20028;-88
2021/08/19 16:25:31;;;;;;;0.00;0.00;;;22.20;69.80;;;;;;4916459;29;20039;-88
2021/08/19 16:27:58;;;;;;;0.03;0.03;;;22.10;70.00;;;;;;4918136;29;20080;-88
2021/08/19 16:30:24;;;;;;;0.00;0.00;;;22.10;70.20;;;;;;4916587;29;20039;-87
2021/08/19 16:32:50;;;;;;;0.00;0.00;;;22.10;70.40;;;;;;4916445;29;20127;-87
2021/08/19 16:35:16;;;;;;;0.00;0.00;;;22.10;70.50;;;;;;4917814;29;20061;-87
2021/08/19 16:37:42;;;;;;;0.00;0.00;;;22.10;70.60;;;;;;4916386;29;20485;-87
2021/08/19 16:40:10;;;;;;;0.00;0.00;;;22.00;70.70;;;;;;4916446;29;20024;-88
2021/08/19 16:42:37;;;;;;;0.00;0.00;;;22.00;70.90;;;;;;4916244;29;20037;-87
2021/08/19 16:45:03;;;;;;;0.00;0.00;;;21.90;71.60;;;;;;4916272;29;20035;-87
2021/08/19 16:47:32;;;;;;;0.00;0.00;;;21.90;71.30;;;;;;4916182;29;20040;-87
2021/08/19 16:50:01;;;;;;;0.00;0.00;;;21.90;71.50;;;;;;4916143;29;20031;-87
2021/08/19 16:52:27;;;;;;;0.00;0.00;;;21.90;71.50;;;;;;4916504;29;20032;-87
2021/08/19 16:54:52;;;;;;;0.00;0.00;;;21.90;71.60;;;;;;4917446;29;20323;-88
2021/08/19 16:57:18;;;;;;;0.00;0.00;;;21.80;71.70;;;;;;4917192;29;20055;-87
2021/08/19 16:59:44;;;;;;;0.00;0.00;;;21.80;71.80;;;;;;4917838;29;20474;-87
2021/08/19 17:02:10;;;;;;;0.00;0.00;;;21.70;71.90;;;;;;4916936;29;20450;-88
2021/08/19 17:04:35;;;;;;;0.00;0.00;;;21.70;71.90;;;;;;4913934;29;20024;-88
2021/08/19 17:07:03;;;;;;;0.00;0.00;;;21.60;72.10;;;;;;4914136;29;20040;-88
2021/08/19 17:09:29;;;;;;;0.00;0.00;;;21.50;72.20;;;;;;4915610;29;20036;-89
2021/08/19 17:12:00;;;;;;;0.00;0.00;;;21.40;72.50;;;;;;4916158;29;20512;-88
2021/08/19 17:14:26;;;;;;;0.00;0.00;;;21.20;72.90;;;;;;4915780;29;20193;-88
2021/08/19 17:16:52;;;;;;;0.00;0.00;;;21.10;73.40;;;;;;4914936;29;20068;-88
2021/08/19 17:19:18;;;;;;;0.00;0.00;;;20.90;73.70;;;;;;4914450;29;20066;-88
2021/08/19 17:21:43;;;;;;;0.00;0.00;;;20.80;74.00;;;;;;4915470;29;20051;-88
2021/08/19 17:24:10;;;;;;;0.00;0.00;;;20.70;74.30;;;;;;4915898;29;20071;-88
2021/08/19 17:26:36;;;;;;;0.00;0.00;;;20.60;74.60;;;;;;4915869;29;20040;-87
2021/08/19 17:29:01;;;;;;;0.00;0.00;;;20.50;75.00;;;;;;4917655;29;20079;-87
2021/08/19 17:31:27;;;;;;;0.00;0.00;;;20.50;75.40;;;;;;4915946;29;20047;-87
2021/08/19 17:33:53;;;;;;;0.00;0.00;;;20.40;75.60;;;;;;4917272;29;20032;-88
2021/08/19 17:36:19;;;;;;;0.08;0.08;;;20.30;75.70;;;;;;4915891;29;20044;-89
2021/08/19 17:38:44;;;;;;;0.00;0.00;;;20.20;75.90;;;;;;4915754;29;20558;-87
2021/08/19 17:41:11;;;;;;;0.00;0.00;;;20.20;76.30;;;;;;4915549;29;20075;-87
2021/08/19 17:43:37;;;;;;;0.00;0.00;;;20.10;76.50;;;;;;4915920;29;20036;-88
2021/08/19 17:46:03;;;;;;;0.00;0.00;;;20.00;76.70;;;;;;4915770;29;20039;-88
2021/08/19 17:48:30;;;;;;;0.00;0.00;;;20.00;76.80;;;;;;4915594;29;20062;-88
2021/08/19 17:50:56;;;;;;;0.03;0.03;;;20.00;77.00;;;;;;4915393;29;20032;-88
2021/08/19 17:53:22;;;;;;;0.00;0.00;;;20.00;77.10;;;;;;4915689;29;20032;-88
2021/08/19 17:55:50;;;;;;;0.00;0.00;;;20.00;77.10;;;;;;4915516;29;20024;-88
2021/08/19 17:58:16;;;;;;;0.00;0.00;;;19.90;77.10;;;;;;4917171;29;20080;-88
2021/08/19 18:00:42;;;;;;;0.00;0.00;;;19.90;77.10;;;;;;4915416;29;20044;-88
2021/08/19 18:03:08;;;;;;;0.00;0.00;;;19.90;77.20;;;;;;4916909;29;20028;-88
2021/08/19 18:05:35;;;;;;;0.00;0.00;;;19.90;77.40;;;;;;4915352;29;20123;-87
2021/08/19 18:08:04;;;;;;;0.00;0.00;;;19.80;77.50;;;;;;4916888;29;20032;-87
2021/08/19 18:10:30;;;;;;;0.00;0.00;;;19.80;77.50;;;;;;4916623;29;20028;-87
2021/08/19 18:12:55;;;;;;;0.00;0.00;;;19.80;77.40;;;;;;4915659;29;20032;-88
2021/08/19 18:15:22;;;;;;;0.05;0.05;;;19.80;77.40;;;;;;4915648;29;20183;-88
2021/08/19 18:17:47;;;;;;;0.00;0.00;;;19.80;77.60;;;;;;4915592;29;20028;-88
2021/08/19 18:20:14;;;;;;;0.00;0.00;;;19.80;77.60;;;;;;4915569;29;20039;-88
2021/08/19 18:22:41;;;;;;;0.00;0.00;;;19.80;77.40;;;;;;4915815;29;20130;-88
2021/08/19 18:25:13;;;;;;;0.00;0.00;;;19.80;77.40;;;;;;4915191;29;20097;-88